sensor_id;sensor_type;location;lat;lon;timestamp;temperature;humidity
66086;DHT22;52868;49.758;9.586;2023-01-24T00:00:09;4.50;72.60
66086;DHT22;52868;49.758;9.586;2023-01-24T00:02:35;4.50;72.60
66086;DHT22;52868;49.758;9.586;2023-01-24T00:05:01;4.50;72.70
66086;DHT22;52868;49.758;9.586;2023-01-24T00:07:26;4.50;72.60
66086;DHT22;52868;49.758;9.586;2023-01-24T00:09:52;4.50;72.50
66086;DHT22;52868;49.758;9.586;2023-01-24T00:12:18;4.50;72.60
66086;DHT22;52868;49.758;9.586;2023-01-24T00:14:43;4.50;72.60
66086;DHT22;52868;49.758;9.586;2023-01-24T00:17:09;4.50;72.60
66086;DHT22;52868;49.758;9.586;2023-01-24T00:19:35;4.40;72.60
66086;DHT22;52868;49.758;9.586;2023-01-24T00:22:04;4.50;72.70
66086;DHT22;52868;49.758;9.586;2023-01-24T00:24:30;4.50;72.70
66086;DHT22;52868;49.758;9.586;2023-01-24T00:26:58;4.50;72.50
66086;DHT22;52868;49.758;9.586;2023-01-24T00:29:24;4.50;72.60
66086;DHT22;52868;49.758;9.586;2023-01-24T00:31:49;4.50;72.60
66086;DHT22;52868;49.758;9.586;2023-01-24T00:34:15;4.50;72.70
66086;DHT22;52868;49.758;9.586;2023-01-24T00:36:41;4.50;72.60
66086;DHT22;52868;49.758;9.586;2023-01-24T00:39:06;4.50;72.70
66086;DHT22;52868;49.758;9.586;2023-01-24T00:41:32;4.50;72.60
66086;DHT22;52868;49.758;9.586;2023-01-24T00:43:57;4.40;72.40
66086;DHT22;52868;49.758;9.586;2023-01-24T00:46:23;4.40;72.60
66086;DHT22;52868;49.758;9.586;2023-01-24T00:48:49;4.40;72.60
66086;DHT22;52868;49.758;9.586;2023-01-24T00:51:14;4.40;72.60
66086;DHT22;52868;49.758;9.586;2023-01-24T00:53:40;4.40;72.70
66086;DHT22;52868;49.758;9.586;2023-01-24T00:56:06;4.50;72.70
66086;DHT22;52868;49.758;9.586;2023-01-24T00:58:33;4.40;72.60
66086;DHT22;52868;49.758;9.586;2023-01-24T01:00:59;4.50;72.60
66086;DHT22;52868;49.758;9.586;2023-01-24T01:03:28;4.50;72.60
66086;DHT22;52868;49.758;9.586;2023-01-24T01:06:03;4.50;72.60
66086;DHT22;52868;49.758;9.586;2023-01-24T01:08:29;4.50;72.60
66086;DHT22;52868;49.758;9.586;2023-01-24T01:10:54;4.50;72.50
66086;DHT22;52868;49.758;9.586;2023-01-24T01:13:20;4.50;72.50
66086;DHT22;52868;49.758;9.586;2023-01-24T01:15:46;4.40;72.60
66086;DHT22;52868;49.758;9.586;2023-01-24T01:18:11;4.50;72.60
66086;DHT22;52868;49.758;9.586;2023-01-24T01:20:37;4.40;72.60
66086;DHT22;52868;49.758;9.586;2023-01-24T01:23:02;4.40;72.60
66086;DHT22;52868;49.758;9.586;2023-01-24T01:25:28;4.50;72.50
66086;DHT22;52868;49.758;9.586;2023-01-24T01:27:54;4.50;72.60
66086;DHT22;52868;49.758;9.586;2023-01-24T01:30:19;4.50;72.50
66086;DHT22;52868;49.758;9.586;2023-01-24T01:32:45;4.50;72.30
66086;DHT22;52868;49.758;9.586;2023-01-24T01:35:11;4.50;72.60
66086;DHT22;52868;49.758;9.586;2023-01-24T01:37:37;4.50;72.50
66086;DHT22;52868;49.758;9.586;2023-01-24T01:40:03;4.50;72.50
66086;DHT22;52868;49.758;9.586;2023-01-24T01:42:49;4.40;72.50
66086;DHT22;52868;49.758;9.586;2023-01-24T01:45:40;4.50;72.50
66086;DHT22;52868;49.758;9.586;2023-01-24T01:48:15;4.50;72.50
66086;DHT22;52868;49.758;9.586;2023-01-24T01:50:56;4.50;72.50
66086;DHT22;52868;49.758;9.586;2023-01-24T01:53:26;4.50;72.50
66086;DHT22;52868;49.758;9.586;2023-01-24T01:55:55;4.50;72.50
66086;DHT22;52868;49.758;9.586;2023-01-24T01:58:23;4.40;72.50
66086;DHT22;52868;49.758;9.586;2023-01-24T02:00:49;4.40;72.60
66086;DHT22;52868;49.758;9.586;2023-01-24T02:03:18;4.40;72.60
66086;DHT22;52868;49.758;9.586;2023-01-24T02:06:04;4.50;72.60
66086;DHT22;52868;49.758;9.586;2023-01-24T02:08:30;4.40;72.50
66086;DHT22;52868;49.758;9.586;2023-01-24T02:10:57;4.40;72.50
66086;DHT22;52868;49.758;9.586;2023-01-24T02:13:43;4.40;72.50
66086;DHT22;52868;49.758;9.586;2023-01-24T02:16:10;4.50;72.60
66086;DHT22;52868;49.758;9.586;2023-01-24T02:18:38;4.50;72.60
66086;DHT22;52868;49.758;9.586;2023-01-24T02:21:07;4.50;72.50
66086;DHT22;52868;49.758;9.586;2023-01-24T02:23:43;4.50;72.50
66086;DHT22;52868;49.758;9.586;2023-01-24T02:26:16;4.50;72.50
66086;DHT22;52868;49.758;9.586;2023-01-24T02:28:46;4.50;72.40
66086;DHT22;52868;49.758;9.586;2023-01-24T02:31:13;4.50;72.50
66086;DHT22;52868;49.758;9.586;2023-01-24T02:33:39;4.50;72.50
66086;DHT22;52868;49.758;9.586;2023-01-24T02:36:21;4.40;72.50
66086;DHT22;52868;49.758;9.586;2023-01-24T02:38:56;4.50;72.70
66086;DHT22;52868;49.758;9.586;2023-01-24T02:41:26;4.40;72.60
66086;DHT22;52868;49.758;9.586;2023-01-24T02:43:56;4.40;72.60
66086;DHT22;52868;49.758;9.586;2023-01-24T02:46:23;4.40;72.60
66086;DHT22;52868;49.758;9.586;2023-01-24T02:48:51;4.40;72.50
66086;DHT22;52868;49.758;9.586;2023-01-24T02:51:17;4.40;72.60
66086;DHT22;52868;49.758;9.586;2023-01-24T02:54:02;4.40;72.60
66086;DHT22;52868;49.758;9.586;2023-01-24T02:56:27;4.40;72.60
66086;DHT22;52868;49.758;9.586;2023-01-24T02:59:11;4.30;72.60
66086;DHT22;52868;49.758;9.586;2023-01-24T03:01:37;4.40;72.70
66086;DHT22;52868;49.758;9.586;2023-01-24T03:04:03;4.50;72.60
66086;DHT22;52868;49.758;9.586;2023-01-24T03:06:29;4.50;72.60
66086;DHT22;52868;49.758;9.586;2023-01-24T03:08:54;4.40;72.60
66086;DHT22;52868;49.758;9.586;2023-01-24T03:11:20;4.40;72.70
66086;DHT22;52868;49.758;9.586;2023-01-24T03:13:45;4.50;72.60
66086;DHT22;52868;49.758;9.586;2023-01-24T03:16:30;4.50;72.60
66086;DHT22;52868;49.758;9.586;2023-01-24T03:19:14;4.40;72.60
66086;DHT22;52868;49.758;9.586;2023-01-24T03:21:59;4.50;72.60
66086;DHT22;52868;49.758;9.586;2023-01-24T03:24:43;4.50;72.50
66086;DHT22;52868;49.758;9.586;2023-01-24T03:27:27;4.50;72.60
66086;DHT22;52868;49.758;9.586;2023-01-24T03:30:12;4.50;72.50
66086;DHT22;52868;49.758;9.586;2023-01-24T03:33:01;4.50;72.70
66086;DHT22;52868;49.758;9.586;2023-01-24T03:35:48;4.50;72.70
66086;DHT22;52868;49.758;9.586;2023-01-24T03:38:22;4.40;72.60
66086;DHT22;52868;49.758;9.586;2023-01-24T03:41:07;4.50;72.80
66086;DHT22;52868;49.758;9.586;2023-01-24T03:43:33;4.40;72.60
66086;DHT22;52868;49.758;9.586;2023-01-24T03:45:59;4.40;72.80
66086;DHT22;52868;49.758;9.586;2023-01-24T03:48:24;4.40;72.90
66086;DHT22;52868;49.758;9.586;2023-01-24T03:51:02;4.50;72.80
66086;DHT22;52868;49.758;9.586;2023-01-24T03:53:47;4.50;72.70
66086;DHT22;52868;49.758;9.586;2023-01-24T03:56:13;4.50;72.70
66086;DHT22;52868;49.758;9.586;2023-01-24T03:58:39;4.50;72.80
66086;DHT22;52868;49.758;9.586;2023-01-24T04:01:05;4.50;72.80
66086;DHT22;52868;49.758;9.586;2023-01-24T04:03:31;4.50;72.80
66086;DHT22;52868;49.758;9.586;2023-01-24T04:05:58;4.50;72.80
66086;DHT22;52868;49.758;9.586;2023-01-24T04:08:24;4.40;72.90
66086;DHT22;52868;49.758;9.586;2023-01-24T04:10:50;4.50;72.80
66086;DHT22;52868;49.758;9.586;2023-01-24T04:13:15;4.50;72.80
66086;DHT22;52868;49.758;9.586;2023-01-24T04:15:41;4.50;72.70
66086;DHT22;52868;49.758;9.586;2023-01-24T04:18:07;4.40;73.00
66086;DHT22;52868;49.758;9.586;2023-01-24T04:20:35;4.40;73.00
66086;DHT22;52868;49.758;9.586;2023-01-24T04:23:06;4.40;73.00
66086;DHT22;52868;49.758;9.586;2023-01-24T04:25:32;4.40;72.90
66086;DHT22;52868;49.758;9.586;2023-01-24T04:27:58;4.40;73.20
66086;DHT22;52868;49.758;9.586;2023-01-24T04:30:24;4.40;73.10
66086;DHT22;52868;49.758;9.586;2023-01-24T04:32:49;4.40;73.20
66086;DHT22;52868;49.758;9.586;2023-01-24T04:35:17;4.40;73.00
66086;DHT22;52868;49.758;9.586;2023-01-24T04:37:43;4.50;73.10
66086;DHT22;52868;49.758;9.586;2023-01-24T04:40:09;4.50;73.00
66086;DHT22;52868;49.758;9.586;2023-01-24T04:42:37;4.50;73.10
66086;DHT22;52868;49.758;9.586;2023-01-24T04:45:03;4.50;73.00
66086;DHT22;52868;49.758;9.586;2023-01-24T04:47:29;4.50;73.00
66086;DHT22;52868;49.758;9.586;2023-01-24T04:49:54;4.40;73.20
66086;DHT22;52868;49.758;9.586;2023-01-24T04:52:20;4.40;73.20
66086;DHT22;52868;49.758;9.586;2023-01-24T04:54:45;4.40;73.20
66086;DHT22;52868;49.758;9.586;2023-01-24T04:57:12;4.30;73.30
66086;DHT22;52868;49.758;9.586;2023-01-24T04:59:37;4.40;73.30
66086;DHT22;52868;49.758;9.586;2023-01-24T05:02:03;4.40;73.30
66086;DHT22;52868;49.758;9.586;2023-01-24T05:04:30;4.50;73.20
66086;DHT22;52868;49.758;9.586;2023-01-24T05:06:55;4.40;73.30
66086;DHT22;52868;49.758;9.586;2023-01-24T05:09:21;4.40;73.30
66086;DHT22;52868;49.758;9.586;2023-01-24T05:11:47;4.40;73.30
66086;DHT22;52868;49.758;9.586;2023-01-24T05:14:12;4.40;73.30
66086;DHT22;52868;49.758;9.586;2023-01-24T05:16:38;4.40;73.30
66086;DHT22;52868;49.758;9.586;2023-01-24T05:19:04;4.50;73.20
66086;DHT22;52868;49.758;9.586;2023-01-24T05:21:30;4.40;73.20
66086;DHT22;52868;49.758;9.586;2023-01-24T05:23:56;4.50;73.30
66086;DHT22;52868;49.758;9.586;2023-01-24T05:26:24;4.50;73.30
66086;DHT22;52868;49.758;9.586;2023-01-24T05:28:51;4.40;73.30
66086;DHT22;52868;49.758;9.586;2023-01-24T05:31:17;4.40;73.30
66086;DHT22;52868;49.758;9.586;2023-01-24T05:33:43;4.40;73.40
66086;DHT22;52868;49.758;9.586;2023-01-24T05:36:14;4.40;73.40
66086;DHT22;52868;49.758;9.586;2023-01-24T05:38:40;4.40;73.50
66086;DHT22;52868;49.758;9.586;2023-01-24T05:41:09;4.50;73.40
66086;DHT22;52868;49.758;9.586;2023-01-24T05:43:36;4.40;73.40
66086;DHT22;52868;49.758;9.586;2023-01-24T05:46:22;4.40;73.50
66086;DHT22;52868;49.758;9.586;2023-01-24T05:48:48;4.40;73.50
66086;DHT22;52868;49.758;9.586;2023-01-24T05:51:16;4.40;73.50
66086;DHT22;52868;49.758;9.586;2023-01-24T05:53:43;4.40;73.60
66086;DHT22;52868;49.758;9.586;2023-01-24T05:56:17;4.40;73.60
66086;DHT22;52868;49.758;9.586;2023-01-24T05:58:44;4.40;73.60
66086;DHT22;52868;49.758;9.586;2023-01-24T06:01:12;4.40;73.60
66086;DHT22;52868;49.758;9.586;2023-01-24T06:03:39;4.50;73.50
66086;DHT22;52868;49.758;9.586;2023-01-24T06:06:06;4.50;73.30
66086;DHT22;52868;49.758;9.586;2023-01-24T06:08:32;4.40;73.40
66086;DHT22;52868;49.758;9.586;2023-01-24T06:11:07;4.40;73.60
66086;DHT22;52868;49.758;9.586;2023-01-24T06:13:33;4.40;73.60
66086;DHT22;52868;49.758;9.586;2023-01-24T06:16:08;4.40;73.50
66086;DHT22;52868;49.758;9.586;2023-01-24T06:18:34;4.40;73.50
66086;DHT22;52868;49.758;9.586;2023-01-24T06:21:17;4.40;73.60
66086;DHT22;52868;49.758;9.586;2023-01-24T06:23:46;4.40;73.50
66086;DHT22;52868;49.758;9.586;2023-01-24T06:26:12;4.40;73.40
66086;DHT22;52868;49.758;9.586;2023-01-24T06:28:38;4.40;73.60
66086;DHT22;52868;49.758;9.586;2023-01-24T06:39:26;4.40;73.50
66086;DHT22;52868;49.758;9.586;2023-01-24T06:41:52;4.40;73.50
66086;DHT22;52868;49.758;9.586;2023-01-24T06:44:18;4.40;73.60
66086;DHT22;52868;49.758;9.586;2023-01-24T06:46:44;4.50;73.50
66086;DHT22;52868;49.758;9.586;2023-01-24T06:49:11;4.40;73.50
66086;DHT22;52868;49.758;9.586;2023-01-24T06:51:36;4.40;73.50
66086;DHT22;52868;49.758;9.586;2023-01-24T06:54:02;4.40;73.50
66086;DHT22;52868;49.758;9.586;2023-01-24T06:56:28;4.50;73.50
66086;DHT22;52868;49.758;9.586;2023-01-24T06:58:54;4.50;73.40
66086;DHT22;52868;49.758;9.586;2023-01-24T07:01:19;4.50;73.40
66086;DHT22;52868;49.758;9.586;2023-01-24T07:03:45;4.50;73.30
66086;DHT22;52868;49.758;9.586;2023-01-24T07:06:10;4.50;73.40
66086;DHT22;52868;49.758;9.586;2023-01-24T07:08:36;4.50;73.40
66086;DHT22;52868;49.758;9.586;2023-01-24T07:11:02;4.40;73.60
66086;DHT22;52868;49.758;9.586;2023-01-24T07:13:27;4.40;73.50
66086;DHT22;52868;49.758;9.586;2023-01-24T07:15:53;4.40;73.70
66086;DHT22;52868;49.758;9.586;2023-01-24T07:18:19;4.40;73.70
66086;DHT22;52868;49.758;9.586;2023-01-24T07:20:45;4.40;73.50
66086;DHT22;52868;49.758;9.586;2023-01-24T07:23:21;4.50;73.50
66086;DHT22;52868;49.758;9.586;2023-01-24T07:25:49;4.50;73.60
66086;DHT22;52868;49.758;9.586;2023-01-24T07:28:15;4.50;73.40
66086;DHT22;52868;49.758;9.586;2023-01-24T07:30:41;4.50;73.50
66086;DHT22;52868;49.758;9.586;2023-01-24T07:33:07;4.50;73.40
66086;DHT22;52868;49.758;9.586;2023-01-24T07:35:32;4.50;73.40
66086;DHT22;52868;49.758;9.586;2023-01-24T07:37:58;4.50;73.40
66086;DHT22;52868;49.758;9.586;2023-01-24T07:40:25;4.50;73.30
66086;DHT22;52868;49.758;9.586;2023-01-24T07:42:51;4.40;73.50
66086;DHT22;52868;49.758;9.586;2023-01-24T07:45:16;4.50;73.50
66086;DHT22;52868;49.758;9.586;2023-01-24T07:47:42;4.50;73.30
66086;DHT22;52868;49.758;9.586;2023-01-24T07:50:08;4.40;73.40
66086;DHT22;52868;49.758;9.586;2023-01-24T07:52:33;4.50;73.50
66086;DHT22;52868;49.758;9.586;2023-01-24T07:54:59;4.50;73.30
66086;DHT22;52868;49.758;9.586;2023-01-24T07:57:25;4.50;73.30
66086;DHT22;52868;49.758;9.586;2023-01-24T07:59:50;4.50;73.20
66086;DHT22;52868;49.758;9.586;2023-01-24T08:02:16;4.50;73.20
66086;DHT22;52868;49.758;9.586;2023-01-24T08:04:41;4.50;73.30
66086;DHT22;52868;49.758;9.586;2023-01-24T08:07:07;4.50;73.30
66086;DHT22;52868;49.758;9.586;2023-01-24T08:09:41;4.50;73.40
66086;DHT22;52868;49.758;9.586;2023-01-24T08:12:08;4.50;73.30
66086;DHT22;52868;49.758;9.586;2023-01-24T08:14:33;4.50;73.40
66086;DHT22;52868;49.758;9.586;2023-01-24T08:16:59;4.50;73.30
66086;DHT22;52868;49.758;9.586;2023-01-24T08:19:25;4.60;73.20
66086;DHT22;52868;49.758;9.586;2023-01-24T08:21:50;4.50;73.20
66086;DHT22;52868;49.758;9.586;2023-01-24T08:24:16;4.50;73.40
66086;DHT22;52868;49.758;9.586;2023-01-24T08:26:42;4.40;73.40
66086;DHT22;52868;49.758;9.586;2023-01-24T08:29:11;4.40;73.50
66086;DHT22;52868;49.758;9.586;2023-01-24T08:31:37;4.30;73.40
66086;DHT22;52868;49.758;9.586;2023-01-24T08:34:03;4.30;73.80
66086;DHT22;52868;49.758;9.586;2023-01-24T08:36:29;4.30;73.80
66086;DHT22;52868;49.758;9.586;2023-01-24T08:38:54;4.30;73.80
66086;DHT22;52868;49.758;9.586;2023-01-24T08:41:20;4.30;73.70
66086;DHT22;52868;49.758;9.586;2023-01-24T08:43:46;4.40;73.70
66086;DHT22;52868;49.758;9.586;2023-01-24T08:46:11;4.40;73.80
66086;DHT22;52868;49.758;9.586;2023-01-24T08:48:37;4.40;73.70
66086;DHT22;52868;49.758;9.586;2023-01-24T08:51:04;4.40;73.70
66086;DHT22;52868;49.758;9.586;2023-01-24T08:53:30;4.40;73.70
66086;DHT22;52868;49.758;9.586;2023-01-24T08:55:55;4.30;73.80
66086;DHT22;52868;49.758;9.586;2023-01-24T08:58:21;4.40;73.80
66086;DHT22;52868;49.758;9.586;2023-01-24T09:00:47;4.50;73.70
66086;DHT22;52868;49.758;9.586;2023-01-24T09:03:15;4.50;73.70
66086;DHT22;52868;49.758;9.586;2023-01-24T09:05:41;4.50;73.80
66086;DHT22;52868;49.758;9.586;2023-01-24T09:08:07;4.50;73.80
66086;DHT22;52868;49.758;9.586;2023-01-24T09:10:33;4.50;73.60
66086;DHT22;52868;49.758;9.586;2023-01-24T09:13:00;4.50;73.70
66086;DHT22;52868;49.758;9.586;2023-01-24T09:15:26;4.50;73.50
66086;DHT22;52868;49.758;9.586;2023-01-24T09:17:52;4.40;73.60
66086;DHT22;52868;49.758;9.586;2023-01-24T09:20:17;4.40;73.50
66086;DHT22;52868;49.758;9.586;2023-01-24T09:22:44;4.40;73.70
66086;DHT22;52868;49.758;9.586;2023-01-24T09:25:10;4.50;73.70
66086;DHT22;52868;49.758;9.586;2023-01-24T09:27:36;4.40;73.60
66086;DHT22;52868;49.758;9.586;2023-01-24T09:30:03;4.40;73.60
66086;DHT22;52868;49.758;9.586;2023-01-24T09:32:30;4.40;73.70
66086;DHT22;52868;49.758;9.586;2023-01-24T09:34:55;4.40;73.60
66086;DHT22;52868;49.758;9.586;2023-01-24T09:37:21;4.30;73.60
66086;DHT22;52868;49.758;9.586;2023-01-24T09:39:47;4.40;73.70
66086;DHT22;52868;49.758;9.586;2023-01-24T09:45:17;4.40;73.70
66086;DHT22;52868;49.758;9.586;2023-01-24T09:47:51;4.50;73.50
66086;DHT22;52868;49.758;9.586;2023-01-24T09:52:55;4.50;73.40
66086;DHT22;52868;49.758;9.586;2023-01-24T09:55:28;4.50;73.40
66086;DHT22;52868;49.758;9.586;2023-01-24T10:00:44;4.50;73.30
66086;DHT22;52868;49.758;9.586;2023-01-24T10:03:21;4.50;73.30
66086;DHT22;52868;49.758;9.586;2023-01-24T10:05:49;4.60;73.30
66086;DHT22;52868;49.758;9.586;2023-01-24T10:11:21;4.50;73.30
66086;DHT22;52868;49.758;9.586;2023-01-24T10:24:22;4.60;73.30
66086;DHT22;52868;49.758;9.586;2023-01-24T10:26:50;4.60;73.20
66086;DHT22;52868;49.758;9.586;2023-01-24T10:29:25;4.50;73.10
66086;DHT22;52868;49.758;9.586;2023-01-24T10:32:32;4.60;73.20
66086;DHT22;52868;49.758;9.586;2023-01-24T10:34:56;4.50;73.00
66086;DHT22;52868;49.758;9.586;2023-01-24T10:37:25;4.60;73.10
66086;DHT22;52868;49.758;9.586;2023-01-24T10:39:53;4.60;73.20
66086;DHT22;52868;49.758;9.586;2023-01-24T10:42:24;4.60;73.10
66086;DHT22;52868;49.758;9.586;2023-01-24T10:44:51;4.60;73.20
66086;DHT22;52868;49.758;9.586;2023-01-24T10:50:13;4.60;73.10
66086;DHT22;52868;49.758;9.586;2023-01-24T10:52:38;4.60;73.10
66086;DHT22;52868;49.758;9.586;2023-01-24T10:57:52;4.60;73.00
66086;DHT22;52868;49.758;9.586;2023-01-24T11:03:03;4.50;73.10
66086;DHT22;52868;49.758;9.586;2023-01-24T11:05:41;4.60;73.10
66086;DHT22;52868;49.758;9.586;2023-01-24T11:08:15;4.50;73.10
66086;DHT22;52868;49.758;9.586;2023-01-24T11:10:42;4.60;73.10
66086;DHT22;52868;49.758;9.586;2023-01-24T11:13:39;4.60;73.00
66086;DHT22;52868;49.758;9.586;2023-01-24T11:18:51;4.60;73.00
66086;DHT22;52868;49.758;9.586;2023-01-24T11:21:19;4.50;73.10
66086;DHT22;52868;49.758;9.586;2023-01-24T11:23:45;4.60;73.10
66086;DHT22;52868;49.758;9.586;2023-01-24T11:26:31;4.60;73.10
66086;DHT22;52868;49.758;9.586;2023-01-24T11:29:09;4.60;73.10
66086;DHT22;52868;49.758;9.586;2023-01-24T11:31:47;4.60;73.20
66086;DHT22;52868;49.758;9.586;2023-01-24T11:48:08;4.60;73.20
66086;DHT22;52868;49.758;9.586;2023-01-24T12:10:07;4.70;73.10
66086;DHT22;52868;49.758;9.586;2023-01-24T12:12:46;4.70;72.90
66086;DHT22;52868;49.758;9.586;2023-01-24T12:15:26;4.70;73.00
66086;DHT22;52868;49.758;9.586;2023-01-24T12:22:53;4.70;72.90
66086;DHT22;52868;49.758;9.586;2023-01-24T12:25:26;4.60;72.90
66086;DHT22;52868;49.758;9.586;2023-01-24T12:27:57;4.70;72.90
66086;DHT22;52868;49.758;9.586;2023-01-24T12:30:39;4.70;72.90
66086;DHT22;52868;49.758;9.586;2023-01-24T12:38:38;4.70;72.90
66086;DHT22;52868;49.758;9.586;2023-01-24T12:46:38;4.70;72.90
66086;DHT22;52868;49.758;9.586;2023-01-24T12:55:19;4.70;72.90
66086;DHT22;52868;49.758;9.586;2023-01-24T13:06:52;4.70;72.80
66086;DHT22;52868;49.758;9.586;2023-01-24T13:11:57;4.70;72.80
66086;DHT22;52868;49.758;9.586;2023-01-24T13:14:38;4.70;72.60
66086;DHT22;52868;49.758;9.586;2023-01-24T13:17:16;4.70;72.70
66086;DHT22;52868;49.758;9.586;2023-01-24T13:20:07;4.70;72.60
66086;DHT22;52868;49.758;9.586;2023-01-24T13:23:02;4.70;72.70
66086;DHT22;52868;49.758;9.586;2023-01-24T13:33:02;4.60;72.50
66086;DHT22;52868;49.758;9.586;2023-01-24T13:35:29;4.60;72.80
66086;DHT22;52868;49.758;9.586;2023-01-24T13:38:16;4.50;72.60
66086;DHT22;52868;49.758;9.586;2023-01-24T13:40:59;4.60;72.70
66086;DHT22;52868;49.758;9.586;2023-01-24T13:52:02;4.70;72.50
66086;DHT22;52868;49.758;9.586;2023-01-24T13:54:38;4.70;72.60
66086;DHT22;52868;49.758;9.586;2023-01-24T13:57:26;4.70;72.70
66086;DHT22;52868;49.758;9.586;2023-01-24T14:05:48;4.70;72.70
66086;DHT22;52868;49.758;9.586;2023-01-24T14:21:44;4.70;73.00
66086;DHT22;52868;49.758;9.586;2023-01-24T14:27:23;4.60;73.10
66086;DHT22;52868;49.758;9.586;2023-01-24T14:29:53;4.70;73.00
66086;DHT22;52868;49.758;9.586;2023-01-24T14:32:26;4.70;73.20
66086;DHT22;52868;49.758;9.586;2023-01-24T14:37:42;4.60;73.30
66086;DHT22;52868;49.758;9.586;2023-01-24T14:42:39;4.50;73.40
66086;DHT22;52868;49.758;9.586;2023-01-24T14:45:13;4.50;73.40
66086;DHT22;52868;49.758;9.586;2023-01-24T14:47:40;4.50;73.50
66086;DHT22;52868;49.758;9.586;2023-01-24T14:50:27;4.50;73.40
66086;DHT22;52868;49.758;9.586;2023-01-24T14:52:53;4.50;73.50
66086;DHT22;52868;49.758;9.586;2023-01-24T14:55:38;4.50;73.60
66086;DHT22;52868;49.758;9.586;2023-01-24T15:00:46;4.50;73.60
66086;DHT22;52868;49.758;9.586;2023-01-24T15:03:21;4.60;73.50
66086;DHT22;52868;49.758;9.586;2023-01-24T15:06:02;4.60;73.50
66086;DHT22;52868;49.758;9.586;2023-01-24T15:08:30;4.60;73.30
66086;DHT22;52868;49.758;9.586;2023-01-24T15:11:07;4.60;73.40
66086;DHT22;52868;49.758;9.586;2023-01-24T15:13:44;4.60;73.50
66086;DHT22;52868;49.758;9.586;2023-01-24T15:16:21;4.70;73.40
66086;DHT22;52868;49.758;9.586;2023-01-24T15:18:52;4.60;73.40
66086;DHT22;52868;49.758;9.586;2023-01-24T15:23:55;4.50;73.40
66086;DHT22;52868;49.758;9.586;2023-01-24T15:26:37;4.50;73.20
66086;DHT22;52868;49.758;9.586;2023-01-24T15:35:37;4.50;73.20
66086;DHT22;52868;49.758;9.586;2023-01-24T15:38:23;4.60;73.40
66086;DHT22;52868;49.758;9.586;2023-01-24T15:46:34;4.70;73.00
66086;DHT22;52868;49.758;9.586;2023-01-24T15:49:28;4.70;72.90
66086;DHT22;52868;49.758;9.586;2023-01-24T15:52:16;4.70;72.80
66086;DHT22;52868;49.758;9.586;2023-01-24T15:54:49;4.70;73.00
66086;DHT22;52868;49.758;9.586;2023-01-24T15:57:29;4.70;72.90
66086;DHT22;52868;49.758;9.586;2023-01-24T15:59:59;4.70;73.00
66086;DHT22;52868;49.758;9.586;2023-01-24T16:02:26;4.70;72.90
66086;DHT22;52868;49.758;9.586;2023-01-24T16:04:51;4.70;72.90
66086;DHT22;52868;49.758;9.586;2023-01-24T16:07:17;4.70;72.80
66086;DHT22;52868;49.758;9.586;2023-01-24T16:09:45;4.70;72.70
66086;DHT22;52868;49.758;9.586;2023-01-24T16:12:14;4.70;72.90
66086;DHT22;52868;49.758;9.586;2023-01-24T16:14:50;4.70;73.00
66086;DHT22;52868;49.758;9.586;2023-01-24T16:17:18;4.70;72.90
66086;DHT22;52868;49.758;9.586;2023-01-24T16:19:44;4.60;73.00
66086;DHT22;52868;49.758;9.586;2023-01-24T16:22:10;4.60;72.80
66086;DHT22;52868;49.758;9.586;2023-01-24T16:24:36;4.60;73.10
66086;DHT22;52868;49.758;9.586;2023-01-24T16:27:03;4.60;73.00
66086;DHT22;52868;49.758;9.586;2023-01-24T16:29:30;4.70;72.80
66086;DHT22;52868;49.758;9.586;2023-01-24T16:31:55;4.60;72.90
66086;DHT22;52868;49.758;9.586;2023-01-24T16:34:21;4.50;73.00
66086;DHT22;52868;49.758;9.586;2023-01-24T16:36:47;4.50;73.10
66086;DHT22;52868;49.758;9.586;2023-01-24T16:39:19;4.60;73.00
66086;DHT22;52868;49.758;9.586;2023-01-24T16:41:49;4.60;73.00
66086;DHT22;52868;49.758;9.586;2023-01-24T16:44:16;4.70;72.80
66086;DHT22;52868;49.758;9.586;2023-01-24T16:46:49;4.70;72.90
66086;DHT22;52868;49.758;9.586;2023-01-24T16:49:15;4.70;72.80
66086;DHT22;52868;49.758;9.586;2023-01-24T16:51:43;4.70;72.80
66086;DHT22;52868;49.758;9.586;2023-01-24T16:54:09;4.70;72.80
66086;DHT22;52868;49.758;9.586;2023-01-24T16:56:35;4.70;72.70
66086;DHT22;52868;49.758;9.586;2023-01-24T16:59:01;4.70;72.70
66086;DHT22;52868;49.758;9.586;2023-01-24T17:01:26;4.60;72.80
66086;DHT22;52868;49.758;9.586;2023-01-24T17:03:52;4.60;73.00
66086;DHT22;52868;49.758;9.586;2023-01-24T17:06:19;4.70;72.90
66086;DHT22;52868;49.758;9.586;2023-01-24T17:08:49;4.70;72.90
66086;DHT22;52868;49.758;9.586;2023-01-24T17:11:15;4.60;72.90
66086;DHT22;52868;49.758;9.586;2023-01-24T17:13:41;4.70;72.90
66086;DHT22;52868;49.758;9.586;2023-01-24T17:16:09;4.70;73.10
66086;DHT22;52868;49.758;9.586;2023-01-24T17:18:36;4.60;73.00
66086;DHT22;52868;49.758;9.586;2023-01-24T17:21:06;4.60;72.80
66086;DHT22;52868;49.758;9.586;2023-01-24T17:23:33;4.70;72.90
66086;DHT22;52868;49.758;9.586;2023-01-24T17:26:19;4.70;72.80
66086;DHT22;52868;49.758;9.586;2023-01-24T17:28:45;4.70;72.80
66086;DHT22;52868;49.758;9.586;2023-01-24T17:31:13;4.70;72.70
66086;DHT22;52868;49.758;9.586;2023-01-24T17:33:39;4.70;72.90
66086;DHT22;52868;49.758;9.586;2023-01-24T17:36:05;4.70;72.80
66086;DHT22;52868;49.758;9.586;2023-01-24T17:38:32;4.70;72.70
66086;DHT22;52868;49.758;9.586;2023-01-24T17:40:58;4.70;72.80
66086;DHT22;52868;49.758;9.586;2023-01-24T17:43:24;4.70;72.70
66086;DHT22;52868;49.758;9.586;2023-01-24T17:45:54;4.70;72.70
66086;DHT22;52868;49.758;9.586;2023-01-24T17:48:20;4.70;72.80
66086;DHT22;52868;49.758;9.586;2023-01-24T17:50:47;4.70;72.80
66086;DHT22;52868;49.758;9.586;2023-01-24T17:53:14;4.70;72.70
66086;DHT22;52868;49.758;9.586;2023-01-24T17:55:39;4.60;72.80
66086;DHT22;52868;49.758;9.586;2023-01-24T17:58:05;4.50;73.00
66086;DHT22;52868;49.758;9.586;2023-01-24T18:00:31;4.70;73.00
66086;DHT22;52868;49.758;9.586;2023-01-24T18:02:56;4.70;72.90
66086;DHT22;52868;49.758;9.586;2023-01-24T18:05:22;4.60;72.90
66086;DHT22;52868;49.758;9.586;2023-01-24T18:07:48;4.70;72.90
66086;DHT22;52868;49.758;9.586;2023-01-24T18:10:14;4.70;72.90
66086;DHT22;52868;49.758;9.586;2023-01-24T18:12:40;4.70;72.70
66086;DHT22;52868;49.758;9.586;2023-01-24T18:15:06;4.70;72.80
66086;DHT22;52868;49.758;9.586;2023-01-24T18:17:32;4.60;72.80
66086;DHT22;52868;49.758;9.586;2023-01-24T18:19:57;4.60;72.70
66086;DHT22;52868;49.758;9.586;2023-01-24T18:22:23;4.60;72.90
66086;DHT22;52868;49.758;9.586;2023-01-24T18:24:49;4.60;72.70
66086;DHT22;52868;49.758;9.586;2023-01-24T18:27:14;4.50;73.00
66086;DHT22;52868;49.758;9.586;2023-01-24T18:29:40;4.60;72.90
66086;DHT22;52868;49.758;9.586;2023-01-24T18:32:05;4.50;72.80
66086;DHT22;52868;49.758;9.586;2023-01-24T18:34:32;4.60;72.90
66086;DHT22;52868;49.758;9.586;2023-01-24T18:36:57;4.50;72.80
66086;DHT22;52868;49.758;9.586;2023-01-24T18:39:23;4.50;72.90
66086;DHT22;52868;49.758;9.586;2023-01-24T18:41:48;4.60;72.90
66086;DHT22;52868;49.758;9.586;2023-01-24T18:44:14;4.50;72.60
66086;DHT22;52868;49.758;9.586;2023-01-24T18:46:41;4.60;72.80